createdAt,value
2022-10-15T00:00:18.765Z,1004.48
2022-10-15T00:01:18.812Z,1004.41
2022-10-15T00:02:18.699Z,1004.42
2022-10-15T00:03:18.684Z,1004.37
2022-10-15T00:04:18.664Z,1004.41
2022-10-15T00:05:18.843Z,1004.41
2022-10-15T00:06:18.756Z,1004.37
2022-10-15T00:07:18.645Z,1004.38
2022-10-15T00:08:18.635Z,1004.36
2022-10-15T00:09:18.617Z,1004.41
2022-10-15T00:10:18.606Z,1004.37
2022-10-15T00:11:18.576Z,1004.37
2022-10-15T00:12:18.596Z,1004.33
2022-10-15T00:13:18.558Z,1004.36
2022-10-15T00:14:18.541Z,1004.31
2022-10-15T00:15:18.528Z,1004.34
2022-10-15T00:16:18.521Z,1004.28
2022-10-15T00:17:18.507Z,1004.29
2022-10-15T00:18:18.610Z,1004.32
2022-10-15T00:19:18.481Z,1004.34
2022-10-15T00:20:18.480Z,1004.34
2022-10-15T00:21:18.445Z,1004.26
2022-10-15T00:22:18.441Z,1004.25
2022-10-15T00:23:18.430Z,1004.29
2022-10-15T00:24:18.450Z,1004.29
2022-10-15T00:25:18.413Z,1004.31
2022-10-15T00:26:18.394Z,1004.33
2022-10-15T00:27:18.391Z,1004.39
2022-10-15T00:28:18.461Z,1004.35
2022-10-15T00:29:18.354Z,1004.35
2022-10-15T00:30:18.446Z,1004.38
2022-10-15T00:31:18.315Z,1004.45
2022-10-15T00:32:18.305Z,1004.42
2022-10-15T00:33:18.287Z,1004.47
2022-10-15T00:34:18.277Z,1004.46
2022-10-15T00:35:18.276Z,1004.49
2022-10-15T00:36:18.276Z,1004.52
2022-10-15T00:37:18.248Z,1004.49
2022-10-15T00:38:18.236Z,1004.47
2022-10-15T00:39:18.228Z,1004.44
2022-10-15T00:40:18.207Z,1004.45
2022-10-15T00:41:18.187Z,1004.61
2022-10-15T00:42:18.200Z,1004.51
2022-10-15T00:43:19.128Z,1004.49
2022-10-15T00:44:18.418Z,1004.49
2022-10-15T00:45:18.137Z,1004.43
2022-10-15T00:46:18.134Z,1004.49
2022-10-15T00:47:18.140Z,1004.52
2022-10-15T00:48:18.265Z,1004.59
2022-10-15T00:49:18.351Z,1004.51
2022-10-15T00:50:18.082Z,1004.50
2022-10-15T00:51:18.065Z,1004.50
2022-10-15T00:52:18.045Z,1004.52
2022-10-15T00:53:18.030Z,1004.56
2022-10-15T00:54:18.145Z,1004.54
2022-10-15T00:55:18.015Z,1004.52
2022-10-15T00:56:18.003Z,1004.49
2022-10-15T00:57:17.981Z,1004.55
2022-10-15T00:58:18.001Z,1004.49
2022-10-15T00:59:17.960Z,1004.48
2022-10-15T01:00:18.056Z,1004.46
2022-10-15T01:01:17.969Z,1004.47
2022-10-15T01:02:17.944Z,1004.51
2022-10-15T01:03:17.918Z,1004.42
2022-10-15T01:04:18.155Z,1004.41
2022-10-15T01:05:17.882Z,1004.39
2022-10-15T01:06:17.988Z,1004.41
2022-10-15T01:07:17.897Z,1004.40
2022-10-15T01:08:17.888Z,1004.41
2022-10-15T01:09:17.850Z,1004.41
2022-10-15T01:10:17.828Z,1004.33
2022-10-15T01:11:17.821Z,1004.33
2022-10-15T01:12:17.910Z,1004.32
2022-10-15T01:13:17.780Z,1004.37
2022-10-15T01:14:17.767Z,1004.41
2022-10-15T01:15:17.763Z,1004.38
2022-10-15T01:16:17.736Z,1004.40
2022-10-15T01:17:17.726Z,1004.34
2022-10-15T01:18:17.842Z,1004.31
2022-10-15T01:19:17.701Z,1004.30
2022-10-15T01:20:18.174Z,1004.26
2022-10-15T01:21:17.682Z,1004.31
2022-10-15T01:22:17.670Z,1004.26
2022-10-15T01:23:19.307Z,1004.31
2022-10-15T01:24:18.027Z,1004.32
2022-10-15T01:26:17.617Z,1004.30
2022-10-15T01:27:17.599Z,1004.28
2022-10-15T01:28:17.670Z,1004.24
2022-10-15T01:29:17.577Z,1004.24
2022-10-15T01:30:17.595Z,1004.19
2022-10-15T01:31:17.597Z,1004.22
2022-10-15T01:32:17.533Z,1004.25
2022-10-15T01:33:17.519Z,1004.27
2022-10-15T01:35:17.506Z,1004.21
2022-10-15T01:36:17.498Z,1004.23
2022-10-15T01:37:17.483Z,1004.19
2022-10-15T01:38:17.467Z,1004.19
2022-10-15T01:39:17.443Z,1004.22
2022-10-15T01:40:17.439Z,1004.22
2022-10-15T01:41:17.440Z,1004.26
2022-10-15T01:42:17.449Z,1004.26
2022-10-15T01:43:17.456Z,1004.30
2022-10-15T01:44:17.381Z,1004.33
2022-10-15T01:45:17.387Z,1004.30
2022-10-15T01:46:17.360Z,1004.24
2022-10-15T01:47:17.351Z,1004.21
2022-10-15T01:48:17.372Z,1004.27
2022-10-15T01:49:17.322Z,1004.30
2022-10-15T01:50:17.301Z,1004.23
2022-10-15T01:51:17.532Z,1004.25
2022-10-15T01:52:17.336Z,1004.28
2022-10-15T01:53:17.252Z,1004.23
2022-10-15T01:54:17.265Z,1004.21
2022-10-15T01:55:17.245Z,1004.29
2022-10-15T01:56:17.233Z,1004.29
2022-10-15T01:57:17.205Z,1004.32
2022-10-15T01:58:17.215Z,1004.26
2022-10-15T01:59:17.197Z,1004.25
2022-10-15T02:00:17.284Z,1004.17
2022-10-15T02:01:17.494Z,1004.19
2022-10-15T02:02:17.138Z,1004.18
2022-10-15T02:03:17.136Z,1004.16
2022-10-15T02:04:17.118Z,1004.12
2022-10-15T02:05:17.111Z,1004.14
2022-10-15T02:06:17.211Z,1004.13
2022-10-15T02:07:17.077Z,1004.06
2022-10-15T02:08:17.089Z,1004.10
2022-10-15T02:09:17.060Z,1004.06
2022-10-15T02:10:17.060Z,1004.09
2022-10-15T02:11:17.023Z,1004.16
2022-10-15T02:12:17.049Z,1004.13
2022-10-15T02:13:17.099Z,1004.15
2022-10-15T02:14:16.991Z,1004.09
2022-10-15T02:15:16.970Z,1004.06
2022-10-15T02:16:16.976Z,1004.04
2022-10-15T02:17:16.952Z,1004.03
2022-10-15T02:18:16.990Z,1004.10
2022-10-15T02:19:17.199Z,1004.03
2022-10-15T02:20:16.915Z,1003.98
2022-10-15T02:21:16.893Z,1004.05
2022-10-15T02:22:16.912Z,1004.02
2022-10-15T02:23:16.877Z,1004.04
2022-10-15T02:24:16.893Z,1003.99
2022-10-15T02:25:16.863Z,1003.98
2022-10-15T02:26:16.846Z,1004.01
2022-10-15T02:27:16.834Z,1003.93
2022-10-15T02:28:17.008Z,1004.02
2022-10-15T02:30:16.815Z,1004.00
2022-10-15T02:31:16.776Z,1003.97
2022-10-15T02:32:16.762Z,1003.98
2022-10-15T02:33:16.738Z,1003.95
2022-10-15T02:34:16.754Z,1003.99
2022-10-15T02:35:16.763Z,1003.93
2022-10-15T02:36:17.043Z,1003.93
2022-10-15T02:37:16.699Z,1003.91
2022-10-15T02:38:16.716Z,1003.93
2022-10-15T02:39:16.671Z,1003.97
2022-10-15T02:40:16.670Z,1004.03
2022-10-15T02:41:16.639Z,1003.98
2022-10-15T02:42:16.730Z,1003.91
2022-10-15T02:43:16.631Z,1003.99
2022-10-15T02:44:16.611Z,1003.99
2022-10-15T02:45:16.590Z,1003.94
2022-10-15T02:46:16.571Z,1004.00
2022-10-15T02:47:16.641Z,1003.99
2022-10-15T02:48:16.693Z,1003.98
2022-10-15T02:49:16.539Z,1003.96
2022-10-15T02:50:16.526Z,1004.03
2022-10-15T02:51:16.502Z,1003.99
2022-10-15T02:52:16.503Z,1003.98
2022-10-15T02:53:16.505Z,1003.96
2022-10-15T02:54:16.576Z,1004.05
2022-10-15T02:55:16.456Z,1004.00
2022-10-15T02:56:16.454Z,1003.99
2022-10-15T02:57:16.444Z,1004.05
2022-10-15T02:58:16.424Z,1003.99
2022-10-15T02:59:16.415Z,1003.99
2022-10-15T03:00:17.035Z,1004.01
2022-10-15T03:01:16.450Z,1004.00
2022-10-15T03:02:18.509Z,1003.92
2022-10-15T03:03:16.367Z,1003.93
2022-10-15T03:04:16.357Z,1003.92
2022-10-15T03:05:16.375Z,1003.88
2022-10-15T03:06:16.448Z,1003.95
2022-10-15T03:07:16.319Z,1003.88
2022-10-15T03:08:16.328Z,1003.91
2022-10-15T03:09:16.304Z,1003.93
2022-10-15T03:10:16.280Z,1003.93
2022-10-15T03:11:16.274Z,1003.95
2022-10-15T03:12:16.270Z,1003.90
2022-10-15T03:13:16.244Z,1003.89
2022-10-15T03:14:16.284Z,1003.88
2022-10-15T03:15:16.204Z,1003.89
2022-10-15T03:16:16.198Z,1003.93
2022-10-15T03:17:16.184Z,1003.91
2022-10-15T03:18:16.198Z,1003.94
2022-10-15T03:19:16.174Z,1003.87
2022-10-15T03:20:16.201Z,1003.93
2022-10-15T03:21:16.143Z,1003.90
2022-10-15T03:22:16.121Z,1003.91
2022-10-15T03:23:16.103Z,1003.86
2022-10-15T03:24:16.231Z,1003.90
2022-10-15T03:25:16.079Z,1003.89
2022-10-15T03:26:16.084Z,1003.88
2022-10-15T03:27:16.057Z,1003.92
2022-10-15T03:28:16.112Z,1003.93
2022-10-15T03:29:16.040Z,1003.93
2022-10-15T03:30:16.116Z,1003.98
2022-10-15T03:31:16.006Z,1003.95
2022-10-15T03:32:15.993Z,1003.96
2022-10-15T03:33:15.970Z,1003.92
2022-10-15T03:34:15.976Z,1003.95
2022-10-15T03:35:15.982Z,1003.96
2022-10-15T03:36:15.974Z,1003.95
2022-10-15T03:37:15.919Z,1003.93
2022-10-15T03:38:15.951Z,1003.96
2022-10-15T03:39:15.891Z,1003.90
2022-10-15T03:40:15.918Z,1003.89
2022-10-15T03:41:16.210Z,1003.90
2022-10-15T03:42:15.971Z,1003.86
2022-10-15T03:43:15.850Z,1003.87
2022-10-15T03:44:15.832Z,1003.86
2022-10-15T03:45:15.824Z,1003.86
2022-10-15T03:46:15.825Z,1003.84
2022-10-15T03:47:15.823Z,1003.86
2022-10-15T03:48:15.923Z,1003.83
2022-10-15T03:49:15.764Z,1003.93
2022-10-15T03:50:15.763Z,1003.94
2022-10-15T03:51:18.522Z,1003.88
2022-10-15T03:52:16.726Z,1003.85
2022-10-15T03:53:15.722Z,1003.88
2022-10-15T03:54:15.837Z,1003.82
2022-10-15T03:55:15.696Z,1003.82
2022-10-15T03:56:15.685Z,1003.81
2022-10-15T03:57:15.685Z,1003.84
2022-10-15T03:58:15.956Z,1003.85
2022-10-15T03:59:15.648Z,1003.83
2022-10-15T04:00:15.778Z,1003.73
2022-10-15T04:01:15.670Z,1003.70
2022-10-15T04:02:15.609Z,1003.72
2022-10-15T04:03:15.592Z,1003.73
2022-10-15T04:04:15.569Z,1003.67
2022-10-15T04:05:15.827Z,1003.62
2022-10-15T04:06:15.579Z,1003.67
2022-10-15T04:07:15.541Z,1003.66
2022-10-15T04:08:15.529Z,1003.65
2022-10-15T04:09:15.523Z,1003.67
2022-10-15T04:10:15.511Z,1003.68
2022-10-15T04:11:15.492Z,1003.68
2022-10-15T04:12:15.601Z,1003.61
2022-10-15T04:13:15.452Z,1003.65
2022-10-15T04:14:15.472Z,1003.68
2022-10-15T04:15:15.444Z,1003.61
2022-10-15T04:16:15.436Z,1003.65
2022-10-15T04:17:15.413Z,1003.58
2022-10-15T04:18:15.502Z,1003.61
2022-10-15T04:19:15.483Z,1003.57
2022-10-15T04:20:15.367Z,1003.59
2022-10-15T04:21:15.376Z,1003.62
2022-10-15T04:22:15.344Z,1003.56
2022-10-15T04:23:15.346Z,1003.60
2022-10-15T04:24:15.445Z,1003.59
2022-10-15T04:25:15.586Z,1003.63
2022-10-15T04:26:15.311Z,1003.65
2022-10-15T04:28:15.285Z,1003.58
2022-10-15T04:29:15.256Z,1003.54
2022-10-15T04:30:15.378Z,1003.60
2022-10-15T04:31:15.487Z,1003.56
2022-10-15T04:32:15.223Z,1003.58
2022-10-15T04:33:15.247Z,1003.56
2022-10-15T04:34:15.197Z,1003.60
2022-10-15T04:35:15.178Z,1003.53
2022-10-15T04:36:15.301Z,1003.64
2022-10-15T04:37:15.166Z,1003.55
2022-10-15T04:38:15.131Z,1003.54
2022-10-15T04:39:15.121Z,1003.51
2022-10-15T04:40:15.123Z,1003.52
2022-10-15T04:41:15.134Z,1003.44
2022-10-15T04:42:15.129Z,1003.44
2022-10-15T04:43:15.073Z,1003.45
2022-10-15T04:44:15.071Z,1003.54
2022-10-15T04:45:15.116Z,1003.49
2022-10-15T04:46:15.044Z,1003.55
2022-10-15T04:47:15.024Z,1003.44
2022-10-15T04:48:15.032Z,1003.53
2022-10-15T04:49:15.813Z,1003.49
2022-10-15T04:50:14.985Z,1003.50
2022-10-15T04:51:15.022Z,1003.56
2022-10-15T04:52:14.954Z,1003.58
2022-10-15T04:53:14.955Z,1003.66
2022-10-15T04:54:14.979Z,1003.62
2022-10-15T04:55:14.932Z,1003.65
2022-10-15T04:56:14.906Z,1003.61
2022-10-15T04:57:14.936Z,1003.66
2022-10-15T04:58:14.885Z,1003.67
2022-10-15T04:59:14.866Z,1003.72
2022-10-15T05:00:15.307Z,1003.76
2022-10-15T05:01:14.858Z,1003.75
2022-10-15T05:02:14.895Z,1003.77
2022-10-15T05:03:14.824Z,1003.81
2022-10-15T05:04:14.808Z,1003.81
2022-10-15T05:05:14.791Z,1003.80
2022-10-15T05:06:14.901Z,1003.82
2022-10-15T05:07:14.770Z,1003.81
2022-10-15T05:08:14.765Z,1003.82
2022-10-15T05:09:14.741Z,1003.84
2022-10-15T05:10:14.724Z,1003.84
2022-10-15T05:11:14.722Z,1003.80
2022-10-15T05:12:14.727Z,1003.85
2022-10-15T05:13:14.682Z,1003.82
2022-10-15T05:14:14.692Z,1003.86
2022-10-15T05:15:14.665Z,1003.88
2022-10-15T05:16:14.651Z,1003.87
2022-10-15T05:17:14.665Z,1003.90
2022-10-15T05:18:14.766Z,1003.87
2022-10-15T05:19:14.646Z,1003.88
2022-10-15T05:20:14.596Z,1003.94
2022-10-15T05:21:14.584Z,1003.88
2022-10-15T05:22:14.566Z,1003.89
2022-10-15T05:23:14.564Z,1003.86
2022-10-15T05:24:14.567Z,1003.83
2022-10-15T05:25:15.498Z,1003.84
2022-10-15T05:26:14.528Z,1003.78
2022-10-15T05:27:14.515Z,1003.83
2022-10-15T05:28:14.505Z,1003.77
2022-10-15T05:29:14.490Z,1003.81
2022-10-15T05:30:14.600Z,1003.78
2022-10-15T05:31:18.611Z,1003.76
2022-10-15T05:32:14.493Z,1003.74
2022-10-15T05:33:14.435Z,1003.72
2022-10-15T05:34:14.433Z,1003.71
2022-10-15T05:35:14.420Z,1003.75
2022-10-15T05:36:14.443Z,1003.73
2022-10-15T05:37:14.385Z,1003.73
2022-10-15T05:38:14.388Z,1003.71
2022-10-15T05:39:14.355Z,1003.84
2022-10-15T05:40:17.052Z,1003.79
2022-10-15T05:41:15.474Z,1003.73
2022-10-15T05:42:14.312Z,1003.73
2022-10-15T05:43:14.306Z,1003.73
2022-10-15T05:44:14.291Z,1003.80
2022-10-15T05:45:14.284Z,1003.81
2022-10-15T05:46:14.261Z,1003.80
2022-10-15T05:47:14.283Z,1003.79
2022-10-15T05:48:14.246Z,1003.77
2022-10-15T05:49:14.226Z,1003.86
2022-10-15T05:50:14.221Z,1003.85
2022-10-15T05:51:14.206Z,1003.89
2022-10-15T05:52:14.188Z,1003.82
2022-10-15T05:53:14.213Z,1003.84
2022-10-15T05:54:14.164Z,1003.82
2022-10-15T05:55:14.160Z,1003.84
2022-10-15T05:56:14.138Z,1003.80
2022-10-15T05:57:14.125Z,1003.83
2022-10-15T05:58:14.108Z,1003.86
2022-10-15T05:59:14.158Z,1003.88
2022-10-15T06:00:14.094Z,1003.84
2022-10-15T06:01:14.249Z,1003.84
2022-10-15T06:02:14.671Z,1003.91
2022-10-15T06:03:14.066Z,1003.92
2022-10-15T06:04:14.046Z,1003.94
2022-10-15T06:05:14.068Z,1003.90
2022-10-15T06:06:14.064Z,1003.92
2022-10-15T06:07:13.993Z,1003.89
2022-10-15T06:08:13.980Z,1003.96
2022-10-15T06:09:13.980Z,1003.97
2022-10-15T06:10:13.962Z,1003.96
2022-10-15T06:11:14.022Z,1003.98
2022-10-15T06:12:13.948Z,1003.94
2022-10-15T06:13:13.989Z,1003.99
2022-10-15T06:14:13.903Z,1003.96
2022-10-15T06:15:13.938Z,1003.95
2022-10-15T06:16:15.570Z,1003.97
2022-10-15T06:17:13.988Z,1004.02
2022-10-15T06:18:13.887Z,1004.01
2022-10-15T06:19:13.845Z,1004.03
2022-10-15T06:20:13.824Z,1003.98
2022-10-15T06:21:13.827Z,1004.00
2022-10-15T06:22:13.807Z,1004.04
2022-10-15T06:23:13.823Z,1004.05
2022-10-15T06:24:13.775Z,1004.02
2022-10-15T06:25:14.015Z,1004.10
2022-10-15T06:26:13.748Z,1004.09
2022-10-15T06:27:13.739Z,1004.13
2022-10-15T06:28:13.728Z,1004.12
2022-10-15T06:29:13.836Z,1004.10
2022-10-15T06:30:13.729Z,1004.01
2022-10-15T06:31:14.526Z,1004.03
2022-10-15T06:32:13.670Z,1004.05
2022-10-15T06:33:13.673Z,1004.10
2022-10-15T06:34:13.648Z,1004.01
2022-10-15T06:35:13.656Z,1004.05
2022-10-15T06:36:13.715Z,1004.01
2022-10-15T06:37:13.612Z,1003.99
2022-10-15T06:38:13.605Z,1004.01
2022-10-15T06:39:13.652Z,1004.03
2022-10-15T06:40:13.834Z,1004.04
2022-10-15T06:41:13.590Z,1004.04
2022-10-15T06:42:13.561Z,1004.02
2022-10-15T06:43:13.561Z,1004.03
2022-10-15T06:44:13.524Z,1004.01
2022-10-15T06:45:15.800Z,1004.02
2022-10-15T06:46:14.324Z,1004.03
2022-10-15T06:47:13.604Z,1003.98
2022-10-15T06:48:13.483Z,1004.02
2022-10-15T06:49:13.454Z,1004.07
2022-10-15T06:50:13.445Z,1004.03
2022-10-15T06:51:13.435Z,1004.09
2022-10-15T06:52:14.009Z,1004.07
2022-10-15T06:53:13.525Z,1004.07
2022-10-15T06:54:14.371Z,1004.04
2022-10-15T06:55:13.377Z,1004.03
2022-10-15T06:56:13.396Z,1004.03
2022-10-15T06:57:13.360Z,1003.96
2022-10-15T06:58:13.345Z,1004.02
2022-10-15T06:59:13.438Z,1003.97
2022-10-15T07:00:13.515Z,1003.96
2022-10-15T07:01:13.298Z,1003.98
2022-10-15T07:02:13.567Z,1003.97
2022-10-15T07:03:13.278Z,1003.97
2022-10-15T07:04:13.279Z,1004.03
2022-10-15T07:05:13.272Z,1004.04
2022-10-15T07:06:13.661Z,1003.99
2022-10-15T07:07:13.244Z,1003.93
2022-10-15T07:08:16.930Z,1004.03
2022-10-15T07:09:14.201Z,1004.03
2022-10-15T07:10:13.219Z,1004.03
2022-10-15T07:11:13.295Z,1004.04
2022-10-15T07:12:13.191Z,1004.13
2022-10-15T07:13:13.152Z,1004.13
2022-10-15T07:14:13.154Z,1004.10
2022-10-15T07:15:13.113Z,1004.15
2022-10-15T07:16:13.106Z,1004.13
2022-10-15T07:17:13.211Z,1004.12
2022-10-15T07:18:13.078Z,1004.13
2022-10-15T07:19:13.073Z,1004.22
2022-10-15T07:20:13.061Z,1004.15
2022-10-15T07:21:13.046Z,1004.21
2022-10-15T07:22:13.058Z,1004.22
2022-10-15T07:23:13.136Z,1004.23
2022-10-15T07:24:13.006Z,1004.28
2022-10-15T07:25:12.997Z,1004.32
2022-10-15T07:26:13.006Z,1004.28
2022-10-15T07:27:19.837Z,1004.32
2022-10-15T07:28:13.988Z,1004.33
2022-10-15T07:29:12.948Z,1004.30
2022-10-15T07:30:12.932Z,1004.21
2022-10-15T07:31:13.653Z,1004.22
2022-10-15T07:32:12.909Z,1004.16
2022-10-15T07:33:12.892Z,1004.17
2022-10-15T07:34:12.921Z,1004.19
2022-10-15T07:35:12.861Z,1004.28
2022-10-15T07:36:12.860Z,1004.27
2022-10-15T07:37:12.872Z,1004.19
2022-10-15T07:38:12.822Z,1004.18
2022-10-15T07:39:12.812Z,1004.22
2022-10-15T07:40:12.831Z,1004.17
2022-10-15T07:41:12.791Z,1004.19
2022-10-15T07:43:12.755Z,1004.17
2022-10-15T07:44:12.767Z,1004.18
2022-10-15T07:45:12.744Z,1004.18
2022-10-15T07:46:12.759Z,1004.09
2022-10-15T07:47:12.725Z,1004.11
2022-10-15T07:48:12.713Z,1004.13
2022-10-15T07:49:12.691Z,1004.14
2022-10-15T07:50:12.679Z,1004.12
2022-10-15T07:51:12.698Z,1004.10
2022-10-15T07:52:12.688Z,1004.04
2022-10-15T07:53:12.664Z,1004.05
2022-10-15T07:54:12.620Z,1004.04
2022-10-15T07:55:12.639Z,1004.12
2022-10-15T07:56:12.592Z,1004.12
2022-10-15T07:57:12.579Z,1004.13
2022-10-15T07:58:12.600Z,1004.05
2022-10-15T07:59:12.606Z,1004.14
2022-10-15T08:00:12.540Z,1004.11
2022-10-15T08:01:12.532Z,1004.12
2022-10-15T08:02:12.520Z,1004.12
2022-10-15T08:03:12.501Z,1004.13
2022-10-15T08:04:12.514Z,1004.17
2022-10-15T08:05:12.482Z,1004.13
2022-10-15T08:06:12.463Z,1004.15
2022-10-15T08:07:12.452Z,1004.13
2022-10-15T08:08:12.438Z,1004.18
2022-10-15T08:09:12.516Z,1004.17
2022-10-15T08:10:12.513Z,1004.19
2022-10-15T08:11:12.426Z,1004.20
2022-10-15T08:12:12.384Z,1004.18
2022-10-15T08:13:12.492Z,1004.14
2022-10-15T08:14:12.377Z,1004.16
2022-10-15T08:15:12.352Z,1004.10
2022-10-15T08:16:12.356Z,1004.09
2022-10-15T08:17:12.445Z,1004.04
2022-10-15T08:18:12.315Z,1004.11
2022-10-15T08:19:12.348Z,1004.10
2022-10-15T08:20:12.286Z,1004.00
2022-10-15T08:21:12.762Z,1004.07
2022-10-15T08:22:12.369Z,1004.05
2022-10-15T08:23:12.248Z,1004.08
2022-10-15T08:24:12.234Z,1004.08
2022-10-15T08:25:12.220Z,1004.09
2022-10-15T08:26:12.209Z,1004.05
2022-10-15T08:27:12.191Z,1004.07
2022-10-15T08:28:12.247Z,1004.05
2022-10-15T08:29:12.240Z,1004.05
2022-10-15T08:30:12.153Z,1004.06
2022-10-15T08:31:12.141Z,1004.04
2022-10-15T08:32:12.120Z,1003.94
2022-10-15T08:33:12.121Z,1003.95
2022-10-15T08:34:12.132Z,1003.95
2022-10-15T08:35:12.082Z,1003.89
2022-10-15T08:36:12.072Z,1003.94
2022-10-15T08:37:12.107Z,1004.02
2022-10-15T08:38:14.802Z,1004.00
2022-10-15T08:39:13.143Z,1003.94
2022-10-15T08:40:12.027Z,1003.97
2022-10-15T08:41:12.154Z,1003.91
2022-10-15T08:42:12.004Z,1003.96
2022-10-15T08:43:12.016Z,1003.96
2022-10-15T08:44:11.968Z,1003.94
2022-10-15T08:45:12.075Z,1003.99
2022-10-15T08:46:11.983Z,1003.94
2022-10-15T08:47:11.935Z,1003.90
2022-10-15T08:48:11.925Z,1003.91
2022-10-15T08:49:11.916Z,1003.93
2022-10-15T08:50:11.907Z,1003.98
2022-10-15T08:51:12.179Z,1003.96
2022-10-15T08:52:11.868Z,1003.98
2022-10-15T08:53:11.861Z,1003.98
2022-10-15T08:54:11.860Z,1003.97
2022-10-15T08:55:11.870Z,1003.96
2022-10-15T08:56:11.820Z,1003.91
2022-10-15T08:57:11.901Z,1003.95
2022-10-15T08:58:11.799Z,1003.96
2022-10-15T08:59:11.777Z,1003.94
2022-10-15T09:00:11.789Z,1003.90
2022-10-15T09:01:11.754Z,1003.84
2022-10-15T09:02:11.741Z,1003.85
2022-10-15T09:03:11.818Z,1003.88
2022-10-15T09:04:11.723Z,1003.87
2022-10-15T09:05:11.702Z,1003.89
2022-10-15T09:06:11.699Z,1003.93
2022-10-15T09:07:11.674Z,1003.92
2022-10-15T09:08:11.667Z,1003.91
2022-10-15T09:09:11.765Z,1003.91
2022-10-15T09:10:11.662Z,1003.91
2022-10-15T09:11:11.645Z,1003.94
2022-10-15T09:12:11.615Z,1003.93
2022-10-15T09:13:15.475Z,1003.94
2022-10-15T09:14:11.595Z,1003.88
2022-10-15T09:15:11.621Z,1003.95
2022-10-15T09:16:11.562Z,1003.94
2022-10-15T09:17:11.547Z,1003.91
2022-10-15T09:18:11.538Z,1003.87
2022-10-15T09:19:11.788Z,1003.88
2022-10-15T09:20:11.510Z,1003.91
2022-10-15T09:21:11.525Z,1003.91
2022-10-15T09:22:11.488Z,1003.90
2022-10-15T09:23:12.299Z,1003.94
2022-10-15T09:24:11.461Z,1003.91
2022-10-15T09:25:11.451Z,1003.92
2022-10-15T09:26:11.430Z,1003.90
2022-10-15T09:27:11.521Z,1003.86
2022-10-15T09:28:11.402Z,1003.86
2022-10-15T09:29:11.398Z,1003.90
2022-10-15T09:30:11.395Z,1003.88
2022-10-15T09:31:11.363Z,1003.84
2022-10-15T09:32:11.353Z,1003.89
2022-10-15T09:33:11.458Z,1003.87
2022-10-15T09:34:11.325Z,1003.83
2022-10-15T09:35:11.315Z,1003.82
2022-10-15T09:36:11.304Z,1003.84
2022-10-15T09:37:11.304Z,1003.85
2022-10-15T09:38:11.265Z,1003.89
2022-10-15T09:39:11.775Z,1003.79
2022-10-15T09:40:11.247Z,1003.75
2022-10-15T09:41:11.241Z,1003.77
2022-10-15T09:42:11.241Z,1003.77
2022-10-15T09:43:11.206Z,1003.81
2022-10-15T09:44:11.198Z,1003.80
2022-10-15T09:45:11.278Z,1003.81
2022-10-15T09:46:11.178Z,1003.79
2022-10-15T09:47:11.160Z,1003.83
2022-10-15T09:48:11.151Z,1003.78
2022-10-15T09:49:11.129Z,1003.75
2022-10-15T09:50:11.207Z,1003.77
2022-10-15T09:51:11.150Z,1003.76
2022-10-15T09:52:11.092Z,1003.70
2022-10-15T09:53:11.074Z,1003.70
2022-10-15T09:54:11.071Z,1003.74
2022-10-15T09:55:11.054Z,1003.69
2022-10-15T09:56:11.033Z,1003.68
2022-10-15T09:57:11.125Z,1003.67
2022-10-15T09:58:11.014Z,1003.61
2022-10-15T09:59:11.068Z,1003.67
2022-10-15T10:00:10.985Z,1003.64
2022-10-15T10:01:10.976Z,1003.62
2022-10-15T10:02:11.022Z,1003.63
2022-10-15T10:03:11.003Z,1003.61
2022-10-15T10:04:10.946Z,1003.57
2022-10-15T10:05:10.916Z,1003.45
2022-10-15T10:06:10.919Z,1003.36
2022-10-15T10:07:10.897Z,1003.34
2022-10-15T10:08:10.883Z,1003.31
2022-10-15T10:09:10.898Z,1003.29
2022-10-15T10:10:10.857Z,1003.33
2022-10-15T10:11:10.869Z,1003.33
2022-10-15T10:12:10.838Z,1003.31
2022-10-15T10:13:11.298Z,1003.24
2022-10-15T10:14:10.799Z,1003.29
2022-10-15T10:15:10.810Z,1003.25
2022-10-15T10:16:10.787Z,1003.20
2022-10-15T10:17:10.763Z,1003.20
2022-10-15T10:18:10.759Z,1003.21
2022-10-15T10:19:10.736Z,1003.22
2022-10-15T10:20:10.732Z,1003.26
2022-10-15T10:21:11.791Z,1003.26
2022-10-15T10:22:10.715Z,1003.25
2022-10-15T10:23:10.693Z,1003.27
2022-10-15T10:24:14.710Z,1003.28
2022-10-15T10:25:10.664Z,1003.28
2022-10-15T10:26:10.664Z,1003.33
2022-10-15T10:27:10.770Z,1003.27
2022-10-15T10:28:10.625Z,1003.23
2022-10-15T10:29:22.400Z,1003.21
2022-10-15T10:30:11.622Z,1003.23
2022-10-15T10:31:10.611Z,1003.22
2022-10-15T10:32:10.590Z,1003.25
2022-10-15T10:33:10.658Z,1003.28
2022-10-15T10:34:10.548Z,1003.25
2022-10-15T10:35:10.531Z,1003.25
2022-10-15T10:37:10.499Z,1003.25
2022-10-15T10:38:10.489Z,1003.25
2022-10-15T10:39:10.750Z,1003.30
2022-10-15T10:40:10.470Z,1003.27
2022-10-15T10:41:10.452Z,1003.29
2022-10-15T10:42:10.441Z,1003.26
2022-10-15T10:43:10.427Z,1003.28
2022-10-15T10:44:10.422Z,1003.22
2022-10-15T10:45:12.891Z,1003.20
2022-10-15T10:46:10.393Z,1003.19
2022-10-15T10:47:10.373Z,1003.21
2022-10-15T10:48:10.373Z,1003.21
2022-10-15T10:49:10.353Z,1003.21
2022-10-15T10:50:10.343Z,1003.17
2022-10-15T10:51:12.002Z,1003.16
2022-10-15T10:52:11.315Z,1003.20
2022-10-15T10:53:10.294Z,1003.11
2022-10-15T10:54:10.298Z,1003.07
2022-10-15T10:55:10.277Z,1003.00
2022-10-15T10:56:10.265Z,1003.02
2022-10-15T10:57:10.295Z,1002.96
2022-10-15T10:58:10.240Z,1002.91
2022-10-15T10:59:10.236Z,1002.93
2022-10-15T11:00:10.215Z,1002.89
2022-10-15T11:01:10.260Z,1002.83
2022-10-15T11:02:10.188Z,1002.81
2022-10-15T11:03:10.280Z,1002.85
2022-10-15T11:04:11.876Z,1002.83
2022-10-15T11:05:10.151Z,1002.74
2022-10-15T11:06:10.134Z,1002.80
2022-10-15T11:07:10.126Z,1002.80
2022-10-15T11:08:10.118Z,1002.79
2022-10-15T11:09:10.130Z,1002.76
2022-10-15T11:10:10.112Z,1002.76
2022-10-15T11:11:10.063Z,1002.72
2022-10-15T11:12:10.064Z,1002.66
2022-10-15T11:14:10.033Z,1002.60
2022-10-15T11:15:10.336Z,1002.58
2022-10-15T11:16:10.006Z,1002.55
2022-10-15T11:17:10.013Z,1002.51
2022-10-15T11:18:09.985Z,1002.53
2022-10-15T11:19:18.874Z,1002.51
2022-10-15T11:20:36.779Z,1002.45
2022-10-15T11:21:10.946Z,1002.52
2022-10-15T11:22:09.981Z,1002.56
2022-10-15T11:23:09.914Z,1002.51
2022-10-15T11:24:09.897Z,1002.57
2022-10-15T11:25:09.898Z,1002.59
2022-10-15T11:26:09.998Z,1002.48
2022-10-15T11:27:11.242Z,1002.56
2022-10-15T11:28:09.851Z,1002.56
2022-10-15T11:29:09.841Z,1002.58
2022-10-15T11:30:09.832Z,1002.58
2022-10-15T11:31:09.907Z,1002.51
2022-10-15T11:32:15.209Z,1002.51
2022-10-15T11:33:11.286Z,1002.48
2022-10-15T11:34:09.781Z,1002.50
2022-10-15T11:35:09.762Z,1002.49
2022-10-15T11:36:09.755Z,1002.50
2022-10-15T11:37:09.733Z,1002.50
2022-10-15T11:38:09.751Z,1002.49
2022-10-15T11:39:09.704Z,1002.45
2022-10-15T11:40:09.707Z,1002.49
2022-10-15T11:41:10.504Z,1002.51
2022-10-15T11:42:09.673Z,1002.52
2022-10-15T11:43:09.674Z,1002.47
2022-10-15T11:44:09.670Z,1002.43
2022-10-15T11:45:09.806Z,1002.43
2022-10-15T11:46:09.636Z,1002.38
2022-10-15T11:47:09.607Z,1002.30
2022-10-15T11:48:09.596Z,1002.33
2022-10-15T11:49:09.587Z,1002.26
2022-10-15T11:50:09.681Z,1002.25
2022-10-15T11:51:09.561Z,1002.25
2022-10-15T11:52:09.560Z,1002.24
2022-10-15T11:53:09.535Z,1002.22
2022-10-15T11:54:09.524Z,1002.26
2022-10-15T11:55:09.502Z,1002.23
2022-10-15T11:56:09.533Z,1002.31
2022-10-15T11:57:09.479Z,1002.31
2022-10-15T11:58:09.473Z,1002.31
2022-10-15T11:59:09.444Z,1002.29
2022-10-15T12:00:09.596Z,1002.33
2022-10-15T12:01:09.423Z,1002.25
2022-10-15T12:02:09.447Z,1002.19
2022-10-15T12:03:09.449Z,1002.32
2022-10-15T12:04:09.451Z,1002.31
2022-10-15T12:05:09.386Z,1002.32
2022-10-15T12:06:09.366Z,1002.30
2022-10-15T12:07:09.616Z,1002.20
2022-10-15T12:08:09.461Z,1002.29
2022-10-15T12:09:10.286Z,1002.26
2022-10-15T12:10:09.596Z,1002.25
2022-10-15T12:11:09.299Z,1002.29
2022-10-15T12:12:09.288Z,1002.27